Time;durP1;ratioP1;P1;durP2;ratioP2;P2;SDS_P1;SDS_P2;PMS_P1;PMS_P2;Temp;Humidity;BMP_temperature;BMP_pressure;BME280_temperature;BME280_humidity;BME280_pressure;Samples;Min_cycle;Max_cycle;Signal;HPM_P1;HPM_P2
2021/10/14 00:00:09;;;;;;;16.40;7.65;;;;;;;;;;5013790;28;20060;-78
2021/10/14 00:02:38;;;;;;;15.05;7.97;;;;;;;;;;5014172;28;20532;-78
2021/10/14 00:05:05;;;;;;;20.25;9.10;;;;;;;;;;5012745;28;20042;-78
2021/10/14 00:07:32;;;;;;;20.00;9.85;;;;;;;;;;5012517;28;20104;-78
2021/10/14 00:09:59;;;;;;;19.98;9.98;;;;;;;;;;5013073;28;20061;-77
2021/10/14 00:12:25;;;;;;;28.17;11.77;;;;;;;;;;5014261;28;20115;-78
2021/10/14 00:14:52;;;;;;;23.58;10.77;;;;;;;;;;5014551;28;20137;-78
2021/10/14 00:17:19;;;;;;;26.33;11.00;;;;;;;;;;5013046;28;20046;-78
2021/10/14 00:19:47;;;;;;;25.70;12.05;;;;;;;;;;5013332;28;20077;-77
2021/10/14 00:22:14;;;;;;;21.95;10.32;;;;;;;;;;5014490;28;20045;-77
2021/10/14 00:24:41;;;;;;;17.45;9.30;;;;;;;;;;5022503;28;20501;-76
2021/10/14 00:27:08;;;;;;;18.15;8.27;;;;;;;;;;5020530;28;20053;-77
2021/10/14 00:29:34;;;;;;;15.80;7.88;;;;;;;;;;5015281;28;20050;-78
2021/10/14 00:32:01;;;;;;;16.00;7.47;;;;;;;;;;5015370;28;20417;-77
2021/10/14 00:34:28;;;;;;;15.00;6.55;;;;;;;;;;5015641;28;20049;-77
2021/10/14 00:36:56;;;;;;;15.85;7.05;;;;;;;;;;5015358;28;20053;-77
2021/10/14 00:39:23;;;;;;;14.80;6.78;;;;;;;;;;5015024;28;20108;-77
2021/10/14 00:41:50;;;;;;;14.48;7.50;;;;;;;;;;5014879;28;20096;-78
2021/10/14 00:44:16;;;;;;;17.95;8.23;;;;;;;;;;5015197;28;20132;-77
2021/10/14 00:46:50;;;;;;;18.48;8.93;;;;;;;;;;5015047;28;20050;-77
2021/10/14 00:49:17;;;;;;;19.65;9.00;;;;;;;;;;5015404;28;20049;-77
2021/10/14 00:51:44;;;;;;;19.08;7.90;;;;;;;;;;5015109;28;20054;-78
2021/10/14 00:54:12;;;;;;;15.85;7.85;;;;;;;;;;5015155;28;20137;-78
2021/10/14 00:56:41;;;;;;;19.65;8.68;;;;;;;;;;5014985;28;20042;-77
2021/10/14 00:59:08;;;;;;;19.45;8.90;;;;;;;;;;5014179;28;20046;-77
2021/10/14 01:01:36;;;;;;;19.08;9.38;;;;;;;;;;5015081;28;20054;-78
2021/10/14 01:04:04;;;;;;;21.67;10.93;;;;;;;;;;5015865;28;20096;-77
2021/10/14 01:06:31;;;;;;;20.92;10.13;;;;;;;;;;5014376;28;20062;-77
2021/10/14 01:08:58;;;;;;;18.50;10.73;;;;;;;;;;5014972;28;20443;-77
2021/10/14 01:11:27;;;;;;;16.92;8.52;;;;;;;;;;5014075;28;20048;-78
2021/10/14 01:13:54;;;;;;;15.52;8.02;;;;;;;;;;5013242;28;20046;-77
2021/10/14 01:16:21;;;;;;;15.65;7.32;;;;;;;;;;5013248;28;20124;-78
2021/10/14 01:18:47;;;;;;;19.48;8.75;;;;;;;;;;5013272;28;20448;-78
2021/10/14 01:21:16;;;;;;;15.65;8.05;;;;;;;;;;5013386;28;20483;-78
2021/10/14 01:23:42;;;;;;;15.90;7.50;;;;;;;;;;5013420;28;20045;-78
2021/10/14 01:26:09;;;;;;;18.05;7.93;;;;;;;;;;5013614;28;20057;-78
2021/10/14 01:28:36;;;;;;;15.80;8.35;;;;;;;;;;5012621;28;20528;-79
2021/10/14 01:31:03;;;;;;;17.75;7.65;;;;;;;;;;5013001;28;20046;-76
2021/10/14 01:33:30;;;;;;;15.32;7.88;;;;;;;;;;5012853;28;20390;-77
2021/10/14 01:35:56;;;;;;;15.93;7.78;;;;;;;;;;5015383;28;20042;-76
2021/10/14 01:38:25;;;;;;;16.65;7.80;;;;;;;;;;5016235;28;20104;-78
2021/10/14 01:40:52;;;;;;;18.85;8.60;;;;;;;;;;5016299;28;20050;-77
2021/10/14 01:43:20;;;;;;;14.90;7.90;;;;;;;;;;5015395;28;20504;-76
2021/10/14 01:45:47;;;;;;;16.40;7.95;;;;;;;;;;5015310;28;20057;-77
2021/10/14 01:48:14;;;;;;;18.25;8.15;;;;;;;;;;5015150;28;20054;-79
2021/10/14 01:50:42;;;;;;;19.98;9.05;;;;;;;;;;5017305;28;20057;-78
2021/10/14 01:53:09;;;;;;;15.82;8.13;;;;;;;;;;5016706;28;20042;-77
2021/10/14 01:58:59;;;;;;;21.05;9.90;;;;;;;;;;5004367;28;20037;-76
2021/10/14 02:01:25;;;;;;;30.73;14.45;;;;;;;;;;5016385;28;20041;-78
2021/10/14 02:03:52;;;;;;;70.50;28.25;;;;;;;;;;5016580;28;20116;-76
2021/10/14 02:06:19;;;;;;;74.25;33.05;;;;;;;;;;5014881;28;20464;-79
2021/10/14 02:08:46;;;;;;;122.50;47.50;;;;;;;;;;5014420;28;20046;-77
2021/10/14 02:11:12;;;;;;;105.03;44.20;;;;;;;;;;5014955;28;20100;-77
2021/10/14 02:13:39;;;;;;;87.55;34.95;;;;;;;;;;5015155;28;20535;-77
2021/10/14 02:16:07;;;;;;;62.08;28.17;;;;;;;;;;5014787;28;20097;-76
2021/10/14 02:18:34;;;;;;;39.35;17.75;;;;;;;;;;5014629;28;20042;-77
2021/10/14 02:21:01;;;;;;;33.33;14.93;;;;;;;;;;5015765;28;20057;-78
2021/10/14 02:23:28;;;;;;;24.20;13.20;;;;;;;;;;5015326;28;20073;-78
2021/10/14 02:25:54;;;;;;;23.38;12.52;;;;;;;;;;5016675;28;20046;-78
2021/10/14 02:28:21;;;;;;;36.05;17.83;;;;;;;;;;5014549;28;20073;-77
2021/10/14 02:30:48;;;;;;;30.92;16.40;;;;;;;;;;5015571;28;20046;-77
2021/10/14 02:33:16;;;;;;;18.40;9.18;;;;;;;;;;5016472;28;20045;-78
2021/10/14 02:35:43;;;;;;;19.55;8.77;;;;;;;;;;5016810;28;20104;-77
2021/10/14 02:38:10;;;;;;;19.45;9.38;;;;;;;;;;5014892;28;20107;-77
2021/10/14 02:40:37;;;;;;;18.30;9.40;;;;;;;;;;5016311;28;20050;-77
2021/10/14 02:43:04;;;;;;;21.80;9.57;;;;;;;;;;5015474;28;20042;-77
2021/10/14 02:45:30;;;;;;;23.45;9.57;;;;;;;;;;5014380;28;20046;-78
2021/10/14 02:47:57;;;;;;;16.50;8.38;;;;;;;;;;5015152;28;20492;-77
2021/10/14 02:50:25;;;;;;;19.73;9.75;;;;;;;;;;5017506;28;20558;-77
2021/10/14 02:52:52;;;;;;;22.15;9.25;;;;;;;;;;5016132;28;20057;-77
2021/10/14 02:55:19;;;;;;;19.60;9.70;;;;;;;;;;5015719;28;20103;-78
2021/10/14 02:57:46;;;;;;;20.30;9.73;;;;;;;;;;5015363;28;20041;-78
2021/10/14 03:00:14;;;;;;;22.05;9.82;;;;;;;;;;5015513;28;20034;-78
2021/10/14 03:02:41;;;;;;;21.55;10.02;;;;;;;;;;5015866;28;20046;-77
2021/10/14 03:05:08;;;;;;;22.70;11.90;;;;;;;;;;5028173;28;20050;-77
2021/10/14 03:07:36;;;;;;;22.85;10.68;;;;;;;;;;5036988;28;20034;-77
2021/10/14 03:10:04;;;;;;;20.75;10.82;;;;;;;;;;5031058;28;20061;-77
2021/10/14 03:12:31;;;;;;;19.30;9.88;;;;;;;;;;5021976;28;20412;-77
2021/10/14 03:14:58;;;;;;;22.08;10.20;;;;;;;;;;5021053;28;20054;-77
2021/10/14 03:17:24;;;;;;;21.70;10.13;;;;;;;;;;5019305;28;20046;-78
2021/10/14 03:19:51;;;;;;;22.30;11.05;;;;;;;;;;5014381;28;20054;-78
2021/10/14 03:22:21;;;;;;;20.73;10.88;;;;;;;;;;5014347;28;20046;-77
2021/10/14 03:24:49;;;;;;;22.48;11.82;;;;;;;;;;5013789;28;20073;-77
2021/10/14 03:27:16;;;;;;;23.90;11.25;;;;;;;;;;5014299;28;20050;-78
2021/10/14 03:29:42;;;;;;;24.67;11.07;;;;;;;;;;5014317;28;20046;-78
2021/10/14 03:32:09;;;;;;;23.90;10.80;;;;;;;;;;5013886;28;20050;-77
2021/10/14 03:34:36;;;;;;;20.30;10.98;;;;;;;;;;5013643;28;20104;-78
2021/10/14 03:37:03;;;;;;;26.00;12.20;;;;;;;;;;5013739;28;20505;-78
2021/10/14 03:39:30;;;;;;;24.33;12.55;;;;;;;;;;5013713;28;20428;-78
2021/10/14 03:41:58;;;;;;;24.98;11.63;;;;;;;;;;5013476;28;20045;-78
2021/10/14 03:44:25;;;;;;;28.77;12.70;;;;;;;;;;5015493;28;20497;-77
2021/10/14 03:46:52;;;;;;;23.65;11.85;;;;;;;;;;5019363;28;20049;-77
2021/10/14 03:49:18;;;;;;;28.98;13.85;;;;;;;;;;5018942;28;20532;-77
2021/10/14 03:51:45;;;;;;;33.60;16.17;;;;;;;;;;5018713;28;20099;-77
2021/10/14 03:54:12;;;;;;;25.98;12.63;;;;;;;;;;5018689;28;20053;-78
2021/10/14 03:56:39;;;;;;;23.65;12.23;;;;;;;;;;5018659;28;20145;-77
2021/10/14 03:59:08;;;;;;;26.33;12.07;;;;;;;;;;5018309;28;20050;-78
2021/10/14 04:01:34;;;;;;;32.10;13.98;;;;;;;;;;5018177;28;20054;-77
2021/10/14 04:04:01;;;;;;;25.08;12.55;;;;;;;;;;5018016;28;20497;-77
2021/10/14 04:06:28;;;;;;;32.00;14.00;;;;;;;;;;5016633;28;20559;-78
2021/10/14 04:08:55;;;;;;;32.85;14.38;;;;;;;;;;5013939;28;20045;-78
2021/10/14 04:11:21;;;;;;;26.35;12.40;;;;;;;;;;5013834;28;20050;-78
2021/10/14 04:13:48;;;;;;;29.98;13.73;;;;;;;;;;5014297;28;20046;-78
2021/10/14 04:16:16;;;;;;;25.88;13.48;;;;;;;;;;5013999;28;20050;-78
2021/10/14 04:18:43;;;;;;;26.83;12.95;;;;;;;;;;5013466;28;20144;-78
2021/10/14 04:21:10;;;;;;;26.20;12.32;;;;;;;;;;5013778;28;20053;-78
2021/10/14 04:23:42;;;;;;;28.75;13.27;;;;;;;;;;5013104;28;20082;-76
2021/10/14 04:26:08;;;;;;;29.70;13.85;;;;;;;;;;5013268;28;20050;-77
2021/10/14 04:28:35;;;;;;;27.02;15.27;;;;;;;;;;5012982;28;20424;-78
2021/10/14 04:31:02;;;;;;;29.08;13.95;;;;;;;;;;5013422;28;20045;-78
2021/10/14 04:33:31;;;;;;;27.65;13.30;;;;;;;;;;5014293;28;20046;-77
2021/10/14 04:36:01;;;;;;;30.08;12.88;;;;;;;;;;5014040;28;20046;-78
2021/10/14 04:38:27;;;;;;;29.77;14.30;;;;;;;;;;5014890;28;20180;-78
2021/10/14 04:40:54;;;;;;;29.98;14.32;;;;;;;;;;5013163;28;20104;-78
2021/10/14 04:43:22;;;;;;;27.90;13.40;;;;;;;;;;5013606;28;20086;-78
2021/10/14 04:45:49;;;;;;;34.72;14.45;;;;;;;;;;5014054;28;20050;-78
2021/10/14 04:48:16;;;;;;;32.90;13.82;;;;;;;;;;5012858;28;20077;-78
2021/10/14 04:50:44;;;;;;;32.63;14.02;;;;;;;;;;5013147;28;20096;-78
2021/10/14 04:53:11;;;;;;;30.70;13.98;;;;;;;;;;5013437;28;20046;-77
2021/10/14 04:55:38;;;;;;;30.42;14.05;;;;;;;;;;5010728;28;20054;-78
2021/10/14 04:58:05;;;;;;;29.08;14.50;;;;;;;;;;4993649;28;20050;-78
2021/10/14 05:00:32;;;;;;;33.80;14.20;;;;;;;;;;5058800;23;20052;-76
2021/10/14 05:02:58;;;;;;;28.92;13.95;;;;;;;;;;5075323;28;20033;-77
2021/10/14 05:05:25;;;;;;;32.20;14.10;;;;;;;;;;5059338;28;20110;-76
2021/10/14 05:07:53;;;;;;;26.63;12.65;;;;;;;;;;5056501;28;20049;-76
2021/10/14 05:10:20;;;;;;;32.90;13.40;;;;;;;;;;5058614;28;20063;-76
2021/10/14 05:12:47;;;;;;;35.38;15.90;;;;;;;;;;5060936;28;20048;-77
2021/10/14 05:15:14;;;;;;;43.10;17.65;;;;;;;;;;5060589;28;20052;-78
2021/10/14 05:17:41;;;;;;;36.20;14.15;;;;;;;;;;5058663;28;20577;-77
2021/10/14 05:20:09;;;;;;;36.38;18.63;;;;;;;;;;5060118;28;20049;-78
2021/10/14 05:22:35;;;;;;;33.13;14.25;;;;;;;;;;5056605;28;20106;-78
2021/10/14 05:25:04;;;;;;;31.70;14.90;;;;;;;;;;5056836;28;20102;-78
2021/10/14 05:27:31;;;;;;;29.58;12.93;;;;;;;;;;5056236;28;20415;-78
2021/10/14 05:29:58;;;;;;;31.90;12.98;;;;;;;;;;5056219;28;20495;-79
2021/10/14 05:32:25;;;;;;;32.55;14.40;;;;;;;;;;5055866;28;20052;-77
2021/10/14 05:34:51;;;;;;;29.42;13.73;;;;;;;;;;5056312;28;20084;-77
2021/10/14 05:37:18;;;;;;;28.27;13.15;;;;;;;;;;5055540;28;20105;-77
2021/10/14 05:39:45;;;;;;;28.08;12.48;;;;;;;;;;5055620;28;20107;-77
2021/10/14 05:42:13;;;;;;;41.08;16.20;;;;;;;;;;5056115;28;20125;-77
2021/10/14 05:44:40;;;;;;;33.20;14.23;;;;;;;;;;5055436;28;20048;-77
2021/10/14 05:47:06;;;;;;;32.33;14.20;;;;;;;;;;5055532;28;20118;-77
2021/10/14 05:49:33;;;;;;;30.60;14.82;;;;;;;;;;5055348;28;20049;-77
2021/10/14 05:52:00;;;;;;;29.35;12.15;;;;;;;;;;5055034;28;20098;-77
2021/10/14 05:54:27;;;;;;;29.38;14.00;;;;;;;;;;5055195;28;20099;-77
2021/10/14 05:56:53;;;;;;;30.90;13.02;;;;;;;;;;5054315;28;20049;-76
2021/10/14 05:59:21;;;;;;;34.15;13.55;;;;;;;;;;5054761;28;20041;-76
2021/10/14 06:01:48;;;;;;;31.20;14.52;;;;;;;;;;5054834;28;20045;-77
2021/10/14 06:04:15;;;;;;;51.25;23.33;;;;;;;;;;5054770;28;20427;-77
2021/10/14 06:06:41;;;;;;;35.00;17.77;;;;;;;;;;5054210;28;20459;-77
2021/10/14 06:09:08;;;;;;;34.42;14.23;;;;;;;;;;5054954;28;20095;-77
2021/10/14 06:11:35;;;;;;;29.55;14.77;;;;;;;;;;5054631;28;20095;-77
2021/10/14 06:14:02;;;;;;;31.80;14.52;;;;;;;;;;5054738;28;20056;-78
2021/10/14 06:16:30;;;;;;;34.95;14.90;;;;;;;;;;5054367;28;20045;-78
2021/10/14 06:18:57;;;;;;;36.97;14.85;;;;;;;;;;5054265;28;20061;-78
2021/10/14 06:21:24;;;;;;;33.45;14.23;;;;;;;;;;5054143;28;20053;-77
2021/10/14 06:23:50;;;;;;;37.40;15.35;;;;;;;;;;5054348;28;20045;-77
2021/10/14 06:26:17;;;;;;;34.63;15.50;;;;;;;;;;5054151;28;20041;-77
2021/10/14 06:28:44;;;;;;;35.08;15.27;;;;;;;;;;5054289;28;20052;-77
2021/10/14 06:31:12;;;;;;;39.08;17.23;;;;;;;;;;5054670;28;20447;-77
2021/10/14 06:33:40;;;;;;;47.03;22.33;;;;;;;;;;5054372;28;20049;-77
2021/10/14 06:36:07;;;;;;;36.60;14.98;;;;;;;;;;5054544;28;20079;-77
2021/10/14 06:38:34;;;;;;;33.60;15.25;;;;;;;;;;5054266;28;20473;-77
2021/10/14 06:41:01;;;;;;;32.83;15.45;;;;;;;;;;5053953;28;20049;-77
2021/10/14 06:43:27;;;;;;;36.08;14.43;;;;;;;;;;5054313;28;20041;-77
2021/10/14 06:45:54;;;;;;;38.10;16.40;;;;;;;;;;5054385;28;20106;-77
2021/10/14 06:48:21;;;;;;;33.65;15.25;;;;;;;;;;5053884;28;20049;-77
2021/10/14 06:50:49;;;;;;;32.95;14.88;;;;;;;;;;5055274;28;20041;-77
2021/10/14 06:53:16;;;;;;;32.28;14.13;;;;;;;;;;5056529;28;20106;-78
2021/10/14 06:55:43;;;;;;;34.60;15.35;;;;;;;;;;5054476;28;20077;-78
2021/10/14 06:58:10;;;;;;;43.67;19.17;;;;;;;;;;5054792;28;20135;-78
2021/10/14 07:00:36;;;;;;;33.05;15.15;;;;;;;;;;5054645;28;20045;-78
2021/10/14 07:03:04;;;;;;;32.45;15.00;;;;;;;;;;5055090;28;20087;-77
2021/10/14 07:05:31;;;;;;;32.47;14.63;;;;;;;;;;5056162;28;20079;-78
2021/10/14 07:07:59;;;;;;;30.15;14.25;;;;;;;;;;5057758;28;20102;-77
2021/10/14 07:10:25;;;;;;;29.05;14.23;;;;;;;;;;5056619;28;20118;-77
2021/10/14 07:12:53;;;;;;;34.33;15.20;;;;;;;;;;5056129;28;20503;-77
2021/10/14 07:15:20;;;;;;;30.33;14.10;;;;;;;;;;5055950;28;20069;-77
2021/10/14 07:17:47;;;;;;;26.85;13.27;;;;;;;;;;5055006;28;20049;-77
2021/10/14 07:20:14;;;;;;;33.08;13.88;;;;;;;;;;5055020;28;20057;-77
2021/10/14 07:22:41;;;;;;;29.35;13.77;;;;;;;;;;5054391;28;20129;-78
2021/10/14 07:25:10;;;;;;;32.42;14.80;;;;;;;;;;5054944;28;20483;-77
2021/10/14 07:27:36;;;;;;;29.13;14.57;;;;;;;;;;5055119;28;20049;-77
2021/10/14 07:30:10;;;;;;;29.27;13.50;;;;;;;;;;5054359;28;20045;-77
2021/10/14 07:32:37;;;;;;;28.17;13.65;;;;;;;;;;5054480;28;20091;-77
2021/10/14 07:35:07;;;;;;;26.02;13.00;;;;;;;;;;5055865;28;20048;-77
2021/10/14 07:37:36;;;;;;;31.00;13.68;;;;;;;;;;5055212;28;20045;-77
2021/10/14 07:40:03;;;;;;;27.15;12.95;;;;;;;;;;5055496;28;20048;-78
2021/10/14 07:42:31;;;;;;;26.58;13.43;;;;;;;;;;5057371;28;20103;-79
2021/10/14 07:44:58;;;;;;;30.77;13.45;;;;;;;;;;5057171;28;20500;-78
2021/10/14 07:47:25;;;;;;;28.52;13.98;;;;;;;;;;5060374;28;20049;-78
2021/10/14 07:49:51;;;;;;;29.38;15.13;;;;;;;;;;5057416;28;20045;-78
2021/10/14 07:52:18;;;;;;;30.70;13.80;;;;;;;;;;5059958;28;20052;-78
2021/10/14 07:54:45;;;;;;;29.52;13.30;;;;;;;;;;5055635;28;20049;-77
2021/10/14 07:57:12;;;;;;;24.90;12.30;;;;;;;;;;5074623;28;20041;-77
2021/10/14 07:59:40;;;;;;;29.02;12.35;;;;;;;;;;5075897;28;20056;-77
2021/10/14 08:02:07;;;;;;;27.90;13.93;;;;;;;;;;5076571;28;20075;-77
2021/10/14 08:04:34;;;;;;;27.40;13.57;;;;;;;;;;5062228;28;20049;-78
2021/10/14 08:07:00;;;;;;;25.70;12.77;;;;;;;;;;5057037;28;20063;-78
2021/10/14 08:09:27;;;;;;;24.60;11.30;;;;;;;;;;5055751;28;20557;-78
2021/10/14 08:11:54;;;;;;;24.02;12.18;;;;;;;;;;5056109;28;20099;-78
2021/10/14 08:14:20;;;;;;;23.98;10.98;;;;;;;;;;5059821;28;20097;-78
2021/10/14 08:16:48;;;;;;;28.30;12.88;;;;;;;;;;5058389;28;20056;-79
2021/10/14 08:19:15;;;;;;;25.33;11.40;;;;;;;;;;5060379;28;20045;-79
2021/10/14 08:21:42;;;;;;;23.88;10.45;;;;;;;;;;5060207;28;20057;-78
2021/10/14 08:24:09;;;;;;;25.02;11.85;;;;;;;;;;5057469;28;20500;-78
2021/10/14 08:26:36;;;;;;;22.92;11.45;;;;;;;;;;5057607;28;20049;-78
2021/10/14 08:29:02;;;;;;;22.42;10.75;;;;;;;;;;5056366;28;20110;-78
2021/10/14 08:31:29;;;;;;;26.65;13.45;;;;;;;;;;5058531;28;20110;-78
2021/10/14 08:33:57;;;;;;;20.20;10.50;;;;;;;;;;5058928;28;20044;-78
2021/10/14 08:36:24;;;;;;;18.88;9.07;;;;;;;;;;5057650;28;20053;-77
2021/10/14 08:38:52;;;;;;;20.30;8.77;;;;;;;;;;5057400;28;20041;-78
2021/10/14 08:41:19;;;;;;;18.33;8.45;;;;;;;;;;5059881;28;20045;-78
2021/10/14 08:43:47;;;;;;;20.55;10.10;;;;;;;;;;5059183;28;20052;-77
2021/10/14 08:46:14;;;;;;;21.23;10.57;;;;;;;;;;5060899;28;20045;-77
2021/10/14 08:48:42;;;;;;;19.75;9.00;;;;;;;;;;5061340;28;20048;-78
2021/10/14 08:51:10;;;;;;;18.90;8.93;;;;;;;;;;5061222;28;20419;-78
2021/10/14 08:53:38;;;;;;;18.27;8.90;;;;;;;;;;5060053;28;20040;-77
2021/10/14 08:56:05;;;;;;;20.73;9.70;;;;;;;;;;5062078;28;20048;-78
2021/10/14 08:58:32;;;;;;;17.67;8.65;;;;;;;;;;5063446;28;20041;-78
2021/10/14 09:01:08;;;;;;;18.10;8.25;;;;;;;;;;5062954;28;20049;-77
2021/10/14 09:03:38;;;;;;;16.65;8.38;;;;;;;;;;5059417;28;20106;-78
2021/10/14 09:06:08;;;;;;;16.27;8.13;;;;;;;;;;5059244;28;20507;-77
2021/10/14 09:08:39;;;;;;;19.87;8.80;;;;;;;;;;5056546;28;20642;-76
2021/10/14 09:11:07;;;;;;;;;;;;;;;;;;5058001;28;20282;-78
2021/10/14 09:13:33;;;;;;;23.58;9.40;;;;;;;;;;5058265;28;19920;-77
2021/10/14 09:16:20;;;;;;;16.33;8.00;;;;;;;;;;5057609;28;20049;-77
2021/10/14 09:18:47;;;;;;;14.85;7.70;;;;;;;;;;5056670;28;20132;-77
2021/10/14 09:21:21;;;;;;;15.32;7.65;;;;;;;;;;5056805;28;20056;-77
2021/10/14 09:23:50;;;;;;;18.63;8.27;;;;;;;;;;5056251;28;20057;-78
2021/10/14 09:26:33;;;;;;;16.02;7.15;;;;;;;;;;5057463;28;20111;-78
2021/10/14 09:29:09;;;;;;;14.52;7.45;;;;;;;;;;5057599;28;20101;-77
2021/10/14 09:31:54;;;;;;;17.63;7.78;;;;;;;;;;5058890;28;20049;-77
2021/10/14 09:34:26;;;;;;;11.18;6.28;;;;;;;;;;5057214;28;20049;-77
2021/10/14 09:36:52;;;;;;;12.25;7.30;;;;;;;;;;5055955;28;20049;-77
2021/10/14 09:39:21;;;;;;;15.82;8.13;;;;;;;;;;5055765;28;20095;-77
2021/10/14 09:41:52;;;;;;;13.30;6.53;;;;;;;;;;5056663;28;20045;-78
2021/10/14 09:44:19;;;;;;;12.52;6.70;;;;;;;;;;5057997;28;20049;-78
2021/10/14 09:46:48;;;;;;;12.75;7.18;;;;;;;;;;5060402;28;20049;-78
2021/10/14 09:49:20;;;;;;;15.23;6.90;;;;;;;;;;5061171;28;20057;-78
2021/10/14 09:51:48;;;;;;;13.75;7.30;;;;;;;;;;5057768;28;20508;-77
2021/10/14 09:54:15;;;;;;;14.05;7.22;;;;;;;;;;5058849;28;20554;-79
2021/10/14 09:56:43;;;;;;;14.25;7.60;;;;;;;;;;5060293;28;20569;-78
2021/10/14 09:59:10;;;;;;;11.98;6.20;;;;;;;;;;5055982;28;20128;-78
2021/10/14 10:01:40;;;;;;;15.75;7.68;;;;;;;;;;5056286;28;20095;-77
2021/10/14 10:04:08;;;;;;;14.25;7.20;;;;;;;;;;5056979;28;20079;-78
2021/10/14 10:06:36;;;;;;;13.65;7.57;;;;;;;;;;5056896;28;20049;-78
2021/10/14 10:09:09;;;;;;;12.73;7.15;;;;;;;;;;5057082;28;20102;-78
2021/10/14 10:11:40;;;;;;;16.65;8.10;;;;;;;;;;5056452;28;20107;-78
2021/10/14 10:14:08;;;;;;;14.55;7.75;;;;;;;;;;5056715;28;20216;-78
2021/10/14 10:16:35;;;;;;;14.98;7.80;;;;;;;;;;5057624;28;20041;-78
2021/10/14 10:19:04;;;;;;;14.68;7.60;;;;;;;;;;5056567;28;20049;-77
2021/10/14 10:21:45;;;;;;;15.88;7.32;;;;;;;;;;5057330;28;20049;-79
2021/10/14 10:24:30;;;;;;;14.90;7.85;;;;;;;;;;5059294;28;20045;-78
2021/10/14 10:26:58;;;;;;;19.48;7.88;;;;;;;;;;5057747;28;20080;-77
2021/10/14 10:29:46;;;;;;;17.75;9.52;;;;;;;;;;5057771;28;20041;-78
2021/10/14 10:32:22;;;;;;;15.55;7.72;;;;;;;;;;5056567;28;20661;-77
2021/10/14 10:35:04;;;;;;;16.42;8.73;;;;;;;;;;5058448;28;20056;-78
2021/10/14 10:37:40;;;;;;;15.70;6.85;;;;;;;;;;5055931;28;20049;-77
2021/10/14 10:40:26;;;;;;;15.52;6.75;;;;;;;;;;5057588;28;20522;-78
2021/10/14 10:42:59;;;;;;;15.90;7.18;;;;;;;;;;5059508;28;20144;-78
2021/10/14 10:45:29;;;;;;;15.95;8.23;;;;;;;;;;5058432;28;20443;-77
2021/10/14 10:47:59;;;;;;;13.30;6.07;;;;;;;;;;5056861;28;20052;-78
2021/10/14 10:50:42;;;;;;;13.25;6.63;;;;;;;;;;5057706;28;20175;-78
2021/10/14 10:53:11;;;;;;;12.15;5.15;;;;;;;;;;5057102;28;20103;-76
2021/10/14 10:55:40;;;;;;;10.02;5.45;;;;;;;;;;5060637;28;20569;-78
2021/10/14 10:58:09;;;;;;;13.50;6.68;;;;;;;;;;5071435;28;20041;-78
2021/10/14 11:00:39;;;;;;;13.93;6.30;;;;;;;;;;5062053;22;20053;-76
2021/10/14 11:03:24;;;;;;;16.37;8.33;;;;;;;;;;5014940;28;20049;-77
2021/10/14 11:05:53;;;;;;;11.15;5.80;;;;;;;;;;5014189;28;20299;-76
2021/10/14 11:08:22;;;;;;;10.63;5.72;;;;;;;;;;5013002;28;20100;-76
2021/10/14 11:10:52;;;;;;;11.02;5.68;;;;;;;;;;5013941;28;20050;-77
2021/10/14 11:13:19;;;;;;;10.65;5.85;;;;;;;;;;5014723;28;20610;-76
2021/10/14 11:15:52;;;;;;;9.90;5.00;;;;;;;;;;5014316;28;20050;-76
2021/10/14 11:18:19;;;;;;;10.25;5.20;;;;;;;;;;5014121;28;20046;-76
2021/10/14 11:20:55;;;;;;;9.85;5.90;;;;;;;;;;5013991;28;20567;-76
2021/10/14 11:23:23;;;;;;;12.35;5.18;;;;;;;;;;5014236;28;20046;-76
2021/10/14 11:26:09;;;;;;;10.18;4.63;;;;;;;;;;5013581;28;20050;-77
2021/10/14 11:28:57;;;;;;;11.35;4.78;;;;;;;;;;5013588;28;20050;-76
2021/10/14 11:31:29;;;;;;;12.35;4.40;;;;;;;;;;5014130;28;20049;-76
2021/10/14 11:33:57;;;;;;;9.98;4.35;;;;;;;;;;5013390;28;20046;-77
2021/10/14 11:36:24;;;;;;;13.13;5.07;;;;;;;;;;5014566;28;20046;-79
2021/10/14 11:38:59;;;;;;;11.20;5.13;;;;;;;;;;5013741;28;20058;-76
2021/10/14 11:41:27;;;;;;;10.13;5.28;;;;;;;;;;5013930;28;20045;-77
2021/10/14 11:43:55;;;;;;;10.63;3.90;;;;;;;;;;5013886;28;20046;-77
2021/10/14 11:46:28;;;;;;;12.25;4.95;;;;;;;;;;5013647;28;20052;-78
2021/10/14 11:49:00;;;;;;;11.90;3.90;;;;;;;;;;5013514;28;20046;-76
2021/10/14 11:51:28;;;;;;;12.23;4.60;;;;;;;;;;5013355;28;20061;-76
2021/10/14 11:53:57;;;;;;;8.38;3.55;;;;;;;;;;5013123;28;20057;-76
2021/10/14 11:56:25;;;;;;;6.50;3.17;;;;;;;;;;5013589;28;20061;-77
2021/10/14 11:58:52;;;;;;;11.00;3.95;;;;;;;;;;5013984;28;20394;-75
2021/10/14 12:01:23;;;;;;;8.00;3.72;;;;;;;;;;5015006;28;20050;-76
2021/10/14 12:03:51;;;;;;;;;;;;;;;;;;5014585;28;20046;-77
2021/10/14 12:06:19;;;;;;;9.27;3.55;;;;;;;;;;5014118;28;19929;-76
2021/10/14 12:08:47;;;;;;;9.40;4.47;;;;;;;;;;5013969;28;20527;-76
2021/10/14 12:11:18;;;;;;;10.30;3.90;;;;;;;;;;5012890;28;20101;-77
2021/10/14 12:13:55;;;;;;;10.32;4.28;;;;;;;;;;5013277;28;20103;-77
2021/10/14 12:16:22;;;;;;;10.35;4.70;;;;;;;;;;5014112;28;20080;-78
2021/10/14 12:18:48;;;;;;;7.30;3.53;;;;;;;;;;5013477;28;20045;-76
2021/10/14 12:21:39;;;;;;;7.68;3.80;;;;;;;;;;5013162;28;20116;-76
2021/10/14 12:24:08;;;;;;;7.88;4.38;;;;;;;;;;5014556;28;20497;-76
2021/10/14 12:26:37;;;;;;;8.82;5.05;;;;;;;;;;5012267;28;20136;-78
2021/10/14 12:29:31;;;;;;;10.68;4.90;;;;;;;;;;5012795;28;20113;-77
2021/10/14 12:32:13;;;;;;;11.40;4.85;;;;;;;;;;5013357;28;20058;-78
2021/10/14 12:34:45;;;;;;;11.57;4.60;;;;;;;;;;5013523;28;20149;-77
2021/10/14 12:37:15;;;;;;;11.13;4.13;;;;;;;;;;5013226;28;20057;-77
2021/10/14 12:39:43;;;;;;;9.68;4.20;;;;;;;;;;5012630;28;20058;-77
2021/10/14 12:42:12;;;;;;;8.98;3.95;;;;;;;;;;5012860;28;20084;-76
2021/10/14 12:44:55;;;;;;;8.50;4.47;;;;;;;;;;5012689;28;20485;-76
2021/10/14 12:47:28;;;;;;;9.35;3.90;;;;;;;;;;5011972;28;20077;-76
2021/10/14 12:50:16;;;;;;;8.10;4.00;;;;;;;;;;5013221;28;20100;-77
2021/10/14 12:52:44;;;;;;;7.63;3.90;;;;;;;;;;5012609;28;20045;-77
2021/10/14 12:55:12;;;;;;;6.60;3.70;;;;;;;;;;5012530;28;20133;-76
2021/10/14 12:57:39;;;;;;;7.75;3.45;;;;;;;;;;5012198;28;20053;-77
2021/10/14 13:00:07;;;;;;;7.70;2.70;;;;;;;;;;5011851;28;20120;-76
2021/10/14 13:02:34;;;;;;;6.30;2.90;;;;;;;;;;5012143;28;20045;-76
2021/10/14 13:05:01;;;;;;;6.82;2.58;;;;;;;;;;5012379;28;20100;-77
2021/10/14 13:07:28;;;;;;;6.43;3.78;;;;;;;;;;5011887;28;20415;-77
2021/10/14 13:10:01;;;;;;;10.13;3.88;;;;;;;;;;5012143;28;20054;-77
2021/10/14 13:12:30;;;;;;;7.95;3.05;;;;;;;;;;5011991;28;20519;-77
2021/10/14 13:14:57;;;;;;;7.45;3.17;;;;;;;;;;5012829;28;20073;-77
2021/10/14 13:17:24;;;;;;;8.15;3.25;;;;;;;;;;5012881;28;20105;-78
2021/10/14 13:19:51;;;;;;;5.30;2.58;;;;;;;;;;5013801;28;20042;-77
2021/10/14 13:22:19;;;;;;;5.95;2.65;;;;;;;;;;5013521;28;20058;-78
2021/10/14 13:24:45;;;;;;;7.80;2.67;;;;;;;;;;5013663;28;20115;-77
2021/10/14 13:27:14;;;;;;;7.50;3.03;;;;;;;;;;5013681;28;20073;-77
2021/10/14 13:29:40;;;;;;;6.43;2.78;;;;;;;;;;5013890;28;20092;-77
2021/10/14 13:32:07;;;;;;;6.57;3.03;;;;;;;;;;5016644;28;20054;-77
2021/10/14 13:34:34;;;;;;;8.30;3.00;;;;;;;;;;5016946;28;20104;-78
2021/10/14 13:37:09;;;;;;;7.55;3.38;;;;;;;;;;5017211;28;20049;-78
2021/10/14 13:39:36;;;;;;;19.35;10.73;;;;;;;;;;5018249;28;20046;-77
2021/10/14 13:42:03;;;;;;;10.20;4.93;;;;;;;;;;5017037;28;20057;-77
2021/10/14 13:44:31;;;;;;;6.55;2.55;;;;;;;;;;5017264;28;20084;-77
2021/10/14 13:46:58;;;;;;;8.45;3.00;;;;;;;;;;5027306;28;20058;-77
2021/10/14 13:49:25;;;;;;;9.48;6.13;;;;;;;;;;5036876;28;20176;-77
2021/10/14 13:51:52;;;;;;;10.07;4.97;;;;;;;;;;5036688;28;20141;-77
2021/10/14 13:54:19;;;;;;;16.50;7.72;;;;;;;;;;5023615;28;20513;-76
2021/10/14 13:56:46;;;;;;;9.80;4.93;;;;;;;;;;5017555;28;20053;-78
2021/10/14 13:59:12;;;;;;;7.30;3.10;;;;;;;;;;5017020;28;20390;-76
2021/10/14 14:01:43;;;;;;;10.32;4.38;;;;;;;;;;5016198;28;20050;-76
2021/10/14 14:04:10;;;;;;;7.47;3.88;;;;;;;;;;5016493;28;20132;-77
2021/10/14 14:06:37;;;;;;;9.63;4.03;;;;;;;;;;5015344;28;20042;-76
2021/10/14 14:09:06;;;;;;;8.68;4.13;;;;;;;;;;5016044;28;20042;-76
2021/10/14 14:11:33;;;;;;;10.38;4.75;;;;;;;;;;5015519;28;20046;-76
2021/10/14 14:14:00;;;;;;;10.30;4.30;;;;;;;;;;5015688;28;20061;-77
2021/10/14 14:16:26;;;;;;;12.15;4.80;;;;;;;;;;5016512;28;20505;-78
2021/10/14 14:18:55;;;;;;;8.48;3.85;;;;;;;;;;5016535;28;20057;-77
2021/10/14 14:21:22;;;;;;;11.85;5.68;;;;;;;;;;5017640;28;20046;-78
2021/10/14 14:23:54;;;;;;;13.57;5.00;;;;;;;;;;5016800;28;20116;-77
2021/10/14 14:26:21;;;;;;;14.02;4.90;;;;;;;;;;5016823;28;20041;-77
2021/10/14 14:28:48;;;;;;;11.65;5.43;;;;;;;;;;5016113;28;20057;-77
2021/10/14 14:31:14;;;;;;;9.27;4.68;;;;;;;;;;5015734;28;20049;-78
2021/10/14 14:33:42;;;;;;;9.60;4.18;;;;;;;;;;5015995;28;20050;-77
2021/10/14 14:36:11;;;;;;;7.97;4.50;;;;;;;;;;5015688;28;20096;-78